Estación Meteorológica Peña el Pijo (Robertgarden) [ 02/03/23 03:54:55 CET ]

Fecha Hora Presion(HPa) Temp (°C) Humedad % Rocio (°C) Viento ( m/s) Direccion Lluvia 1Hora(mm) Lluvia 24H(mm) LLuvia Total(mm)
2010-Mar-31 01:01:18 1009.500 6.2 64 -0.1         104.63
2010-Mar-31 02:01:12 1009.600 5.5 66 -0.4         104.63
2010-Mar-31 03:03:19 1009.300 5.7 67 0.0         104.63
2010-Mar-31 04:01:14 1008.800 5.1 68 -0.3         104.63
2010-Mar-31 05:01:13 1008.900 5.3 67 -0.3         104.63
2010-Mar-31 06:01:12 1008.600 4.5 69 -0.7         104.63
2010-Mar-31 07:01:12 1008.600 3.8 72 -0.8         104.63
2010-Mar-31 08:01:15 1008.700 3.6 73 -0.8         104.63
2010-Mar-31 09:01:12 1008.800 4.8 70 -0.2         104.63
2010-Mar-31 10:01:10 1009.100 8.3 57 0.2         104.63
2010-Mar-31 11:01:14 1009.200 11.1 48 0.5         104.63
2010-Mar-31 12:01:13 1008.900 14.6 36 -0.4         104.63
2010-Mar-31 13:01:10 1008.700 16.4 29 -1.8 1.3 NE     104.63
2010-Mar-31 14:01:18 1007.900 19.9 25 -0.9         104.63
2010-Mar-31 15:01:11 1007.700 19.5 18 -5.8 0.9 E     104.63
2010-Mar-31 16:01:12 1007.500 18.4 22 -3.9         104.63
2010-Mar-31 17:01:11 1006.900 18.9 22 -3.5         104.63
2010-Mar-31 18:01:14 1007.000 17.6 21 -5.1 1.3 ESE     104.63
2010-Mar-31 19:01:14 1007.200 15.8 21 -6.5         104.63
2010-Mar-31 20:01:14 1007.500 12.3 32 -4.0         104.63
2010-Mar-31 21:01:13 1008.000 9.8 43 -2.3         104.63
2010-Mar-31 22:01:19 1008.600 8.1 47 -2.6         104.63
2010-Mar-31 23:01:14 1008.900 7.0 54 -1.7         104.63

Temperatura Máxima:19°    Temperatura Mínima:
Presión Máxima:1009.600 Hpa    Presión Mínima:1006.900 Hpa


Volver